sensor_id;sensor_type;location;lat;lon;timestamp;temperature;humidity
20457;DHT22;10387;51.102;6.848;2023-02-08T00:00:23;-2.10;99.90
20457;DHT22;10387;51.102;6.848;2023-02-08T00:02:49;-2.10;99.90
20457;DHT22;10387;51.102;6.848;2023-02-08T00:05:15;-2.10;99.90
20457;DHT22;10387;51.102;6.848;2023-02-08T00:07:42;-2.10;99.90
20457;DHT22;10387;51.102;6.848;2023-02-08T00:10:10;-2.10;99.90
20457;DHT22;10387;51.102;6.848;2023-02-08T00:12:36;-2.10;99.90
20457;DHT22;10387;51.102;6.848;2023-02-08T00:15:03;-2.00;99.90
20457;DHT22;10387;51.102;6.848;2023-02-08T00:17:29;-2.00;99.90
20457;DHT22;10387;51.102;6.848;2023-02-08T00:19:55;-1.90;99.90
20457;DHT22;10387;51.102;6.848;2023-02-08T00:22:21;-1.90;99.90
20457;DHT22;10387;51.102;6.848;2023-02-08T00:24:46;-2.00;99.90
20457;DHT22;10387;51.102;6.848;2023-02-08T00:27:13;-1.90;99.90
20457;DHT22;10387;51.102;6.848;2023-02-08T00:29:40;-2.00;99.90
20457;DHT22;10387;51.102;6.848;2023-02-08T00:32:05;-2.00;99.90
20457;DHT22;10387;51.102;6.848;2023-02-08T00:34:31;-2.00;99.90
20457;DHT22;10387;51.102;6.848;2023-02-08T00:36:57;-2.10;99.90
20457;DHT22;10387;51.102;6.848;2023-02-08T00:39:22;-2.10;99.90
20457;DHT22;10387;51.102;6.848;2023-02-08T00:41:51;-2.10;99.90
20457;DHT22;10387;51.102;6.848;2023-02-08T00:44:16;-2.10;99.90
20457;DHT22;10387;51.102;6.848;2023-02-08T00:46:43;-2.20;99.90
20457;DHT22;10387;51.102;6.848;2023-02-08T00:49:09;-2.20;99.90
20457;DHT22;10387;51.102;6.848;2023-02-08T00:51:35;-2.20;99.90
20457;DHT22;10387;51.102;6.848;2023-02-08T00:54:01;-2.20;99.90
20457;DHT22;10387;51.102;6.848;2023-02-08T00:56:27;-2.20;99.90
20457;DHT22;10387;51.102;6.848;2023-02-08T00:58:52;-2.20;99.90
20457;DHT22;10387;51.102;6.848;2023-02-08T01:01:18;-2.20;99.90
20457;DHT22;10387;51.102;6.848;2023-02-08T01:03:44;-2.20;99.90
20457;DHT22;10387;51.102;6.848;2023-02-08T01:06:13;-2.20;99.90
20457;DHT22;10387;51.102;6.848;2023-02-08T01:08:39;-2.20;99.90
20457;DHT22;10387;51.102;6.848;2023-02-08T01:11:10;-2.20;99.90
20457;DHT22;10387;51.102;6.848;2023-02-08T01:13:37;-2.20;99.90
20457;DHT22;10387;51.102;6.848;2023-02-08T01:16:12;-2.20;99.90
20457;DHT22;10387;51.102;6.848;2023-02-08T01:18:39;-2.20;99.90
20457;DHT22;10387;51.102;6.848;2023-02-08T01:21:15;-2.30;99.90
20457;DHT22;10387;51.102;6.848;2023-02-08T01:23:42;-2.30;99.90
20457;DHT22;10387;51.102;6.848;2023-02-08T01:26:09;-2.40;99.90
20457;DHT22;10387;51.102;6.848;2023-02-08T01:28:35;-2.40;99.90
20457;DHT22;10387;51.102;6.848;2023-02-08T01:31:13;-2.40;99.90
20457;DHT22;10387;51.102;6.848;2023-02-08T01:33:39;-2.40;99.90
20457;DHT22;10387;51.102;6.848;2023-02-08T01:36:06;-2.40;99.90
20457;DHT22;10387;51.102;6.848;2023-02-08T01:38:33;-2.50;99.90
20457;DHT22;10387;51.102;6.848;2023-02-08T01:41:00;-2.50;99.90
20457;DHT22;10387;51.102;6.848;2023-02-08T01:43:28;-2.40;99.90
20457;DHT22;10387;51.102;6.848;2023-02-08T01:45:55;-2.40;99.90
20457;DHT22;10387;51.102;6.848;2023-02-08T01:48:32;-2.40;99.90
20457;DHT22;10387;51.102;6.848;2023-02-08T01:51:07;-2.40;99.90
20457;DHT22;10387;51.102;6.848;2023-02-08T01:53:35;-2.40;99.90
20457;DHT22;10387;51.102;6.848;2023-02-08T01:56:04;-2.30;99.90
20457;DHT22;10387;51.102;6.848;2023-02-08T01:58:34;-2.40;99.90
20457;DHT22;10387;51.102;6.848;2023-02-08T02:01:01;-2.40;99.90
20457;DHT22;10387;51.102;6.848;2023-02-08T02:03:27;-2.40;99.90
20457;DHT22;10387;51.102;6.848;2023-02-08T02:06:00;-2.40;99.90
20457;DHT22;10387;51.102;6.848;2023-02-08T02:08:30;-2.50;99.90
20457;DHT22;10387;51.102;6.848;2023-02-08T02:10:55;-2.50;99.90
20457;DHT22;10387;51.102;6.848;2023-02-08T02:13:24;-2.50;99.90
20457;DHT22;10387;51.102;6.848;2023-02-08T02:15:51;-2.50;99.90
20457;DHT22;10387;51.102;6.848;2023-02-08T02:18:26;-2.60;99.90
20457;DHT22;10387;51.102;6.848;2023-02-08T02:32:21;-2.60;99.90
20457;DHT22;10387;51.102;6.848;2023-02-08T02:35:11;-2.60;99.90
20457;DHT22;10387;51.102;6.848;2023-02-08T02:37:58;-2.70;99.90
20457;DHT22;10387;51.102;6.848;2023-02-08T02:43:22;-2.70;99.90
20457;DHT22;10387;51.102;6.848;2023-02-08T02:46:29;-2.70;99.90
20457;DHT22;10387;51.102;6.848;2023-02-08T02:49:15;-2.80;99.90
20457;DHT22;10387;51.102;6.848;2023-02-08T02:51:56;-2.80;99.90
20457;DHT22;10387;51.102;6.848;2023-02-08T02:54:39;-2.80;99.90
20457;DHT22;10387;51.102;6.848;2023-02-08T02:57:07;-2.80;99.90
20457;DHT22;10387;51.102;6.848;2023-02-08T02:59:35;-2.80;99.90
20457;DHT22;10387;51.102;6.848;2023-02-08T03:02:02;-2.90;99.90
20457;DHT22;10387;51.102;6.848;2023-02-08T03:16:09;-2.90;99.90
20457;DHT22;10387;51.102;6.848;2023-02-08T03:19:01;-2.80;99.90
20457;DHT22;10387;51.102;6.848;2023-02-08T03:22:09;-2.80;99.90
20457;DHT22;10387;51.102;6.848;2023-02-08T03:24:52;-2.80;99.90
20457;DHT22;10387;51.102;6.848;2023-02-08T03:27:39;-2.80;99.90
20457;DHT22;10387;51.102;6.848;2023-02-08T03:30:16;-2.70;99.90
20457;DHT22;10387;51.102;6.848;2023-02-08T03:32:51;-2.70;99.90
20457;DHT22;10387;51.102;6.848;2023-02-08T03:35:24;-2.60;99.90
20457;DHT22;10387;51.102;6.848;2023-02-08T03:38:10;-2.60;99.90
20457;DHT22;10387;51.102;6.848;2023-02-08T03:40:43;-2.60;99.90
20457;DHT22;10387;51.102;6.848;2023-02-08T03:43:19;-2.60;99.90
20457;DHT22;10387;51.102;6.848;2023-02-08T03:45:50;-2.60;99.90
20457;DHT22;10387;51.102;6.848;2023-02-08T03:48:18;-2.60;99.90
20457;DHT22;10387;51.102;6.848;2023-02-08T03:50:48;-2.60;99.90
20457;DHT22;10387;51.102;6.848;2023-02-08T03:53:16;-2.60;99.90
20457;DHT22;10387;51.102;6.848;2023-02-08T03:55:46;-2.60;99.90
20457;DHT22;10387;51.102;6.848;2023-02-08T03:58:30;-2.60;99.90
20457;DHT22;10387;51.102;6.848;2023-02-08T04:01:08;-2.60;99.90
20457;DHT22;10387;51.102;6.848;2023-02-08T04:03:37;-2.50;99.90
20457;DHT22;10387;51.102;6.848;2023-02-08T04:06:04;-2.50;99.90
20457;DHT22;10387;51.102;6.848;2023-02-08T04:08:29;-2.60;99.90
20457;DHT22;10387;51.102;6.848;2023-02-08T04:10:55;-2.60;99.90
20457;DHT22;10387;51.102;6.848;2023-02-08T04:13:21;-2.70;99.90
20457;DHT22;10387;51.102;6.848;2023-02-08T04:15:47;-2.70;99.90
20457;DHT22;10387;51.102;6.848;2023-02-08T04:18:13;-2.70;99.90
20457;DHT22;10387;51.102;6.848;2023-02-08T04:20:38;-2.70;99.90
20457;DHT22;10387;51.102;6.848;2023-02-08T04:23:04;-2.70;99.90
20457;DHT22;10387;51.102;6.848;2023-02-08T04:25:29;-2.70;99.90
20457;DHT22;10387;51.102;6.848;2023-02-08T04:27:55;-2.80;99.90
20457;DHT22;10387;51.102;6.848;2023-02-08T04:30:21;-2.80;99.90
20457;DHT22;10387;51.102;6.848;2023-02-08T04:32:46;-2.80;99.90
20457;DHT22;10387;51.102;6.848;2023-02-08T04:35:12;-2.90;99.90
20457;DHT22;10387;51.102;6.848;2023-02-08T04:37:37;-2.90;99.90
20457;DHT22;10387;51.102;6.848;2023-02-08T04:40:03;-2.90;99.90
20457;DHT22;10387;51.102;6.848;2023-02-08T04:42:29;-3.00;99.90
20457;DHT22;10387;51.102;6.848;2023-02-08T04:44:55;-3.00;99.90
20457;DHT22;10387;51.102;6.848;2023-02-08T04:47:20;-3.00;99.90
20457;DHT22;10387;51.102;6.848;2023-02-08T04:49:46;-3.00;99.90
20457;DHT22;10387;51.102;6.848;2023-02-08T04:52:12;-3.10;99.90
20457;DHT22;10387;51.102;6.848;2023-02-08T04:54:37;-3.10;99.90
20457;DHT22;10387;51.102;6.848;2023-02-08T04:57:03;-3.00;99.90
20457;DHT22;10387;51.102;6.848;2023-02-08T04:59:29;-3.10;99.90
20457;DHT22;10387;51.102;6.848;2023-02-08T05:01:54;-3.10;99.90
20457;DHT22;10387;51.102;6.848;2023-02-08T05:04:20;-3.10;99.90
20457;DHT22;10387;51.102;6.848;2023-02-08T05:06:45;-3.10;99.90
20457;DHT22;10387;51.102;6.848;2023-02-08T05:09:11;-3.10;99.90
20457;DHT22;10387;51.102;6.848;2023-02-08T05:11:37;-3.10;99.90
20457;DHT22;10387;51.102;6.848;2023-02-08T05:14:03;-3.10;99.90
20457;DHT22;10387;51.102;6.848;2023-02-08T05:16:29;-3.20;99.90
20457;DHT22;10387;51.102;6.848;2023-02-08T05:18:56;-3.20;99.90
20457;DHT22;10387;51.102;6.848;2023-02-08T05:21:22;-3.20;99.90
20457;DHT22;10387;51.102;6.848;2023-02-08T05:23:50;-3.20;99.90
20457;DHT22;10387;51.102;6.848;2023-02-08T05:26:16;-3.20;99.90
20457;DHT22;10387;51.102;6.848;2023-02-08T05:28:43;-3.20;99.90
20457;DHT22;10387;51.102;6.848;2023-02-08T05:31:11;-3.20;99.90
20457;DHT22;10387;51.102;6.848;2023-02-08T05:33:37;-3.20;99.90
20457;DHT22;10387;51.102;6.848;2023-02-08T05:36:02;-3.20;99.90
20457;DHT22;10387;51.102;6.848;2023-02-08T05:38:28;-3.20;99.90
20457;DHT22;10387;51.102;6.848;2023-02-08T05:40:54;-3.20;99.90
20457;DHT22;10387;51.102;6.848;2023-02-08T05:43:19;-3.30;99.90
20457;DHT22;10387;51.102;6.848;2023-02-08T05:45:45;-3.30;99.90
20457;DHT22;10387;51.102;6.848;2023-02-08T05:48:10;-3.30;99.90
20457;DHT22;10387;51.102;6.848;2023-02-08T05:50:36;-3.20;99.90
20457;DHT22;10387;51.102;6.848;2023-02-08T05:53:02;-3.20;99.90
20457;DHT22;10387;51.102;6.848;2023-02-08T05:55:27;-3.20;99.90
20457;DHT22;10387;51.102;6.848;2023-02-08T05:57:54;-3.20;99.90
20457;DHT22;10387;51.102;6.848;2023-02-08T06:00:20;-3.20;99.90
20457;DHT22;10387;51.102;6.848;2023-02-08T06:02:45;-3.30;99.90
20457;DHT22;10387;51.102;6.848;2023-02-08T06:05:11;-3.30;99.90
20457;DHT22;10387;51.102;6.848;2023-02-08T06:07:37;-3.30;99.90
20457;DHT22;10387;51.102;6.848;2023-02-08T06:10:03;-3.30;99.90
20457;DHT22;10387;51.102;6.848;2023-02-08T06:12:28;-3.40;99.90
20457;DHT22;10387;51.102;6.848;2023-02-08T06:14:54;-3.40;99.90
20457;DHT22;10387;51.102;6.848;2023-02-08T06:17:20;-3.40;99.90
20457;DHT22;10387;51.102;6.848;2023-02-08T06:19:45;-3.50;99.90
20457;DHT22;10387;51.102;6.848;2023-02-08T06:22:11;-3.50;99.90
20457;DHT22;10387;51.102;6.848;2023-02-08T06:24:36;-3.50;99.90
20457;DHT22;10387;51.102;6.848;2023-02-08T06:27:02;-3.50;99.90
20457;DHT22;10387;51.102;6.848;2023-02-08T06:29:28;-3.50;99.90
20457;DHT22;10387;51.102;6.848;2023-02-08T06:31:53;-3.50;99.90
20457;DHT22;10387;51.102;6.848;2023-02-08T06:34:19;-3.50;99.90
20457;DHT22;10387;51.102;6.848;2023-02-08T06:36:45;-3.50;99.90
20457;DHT22;10387;51.102;6.848;2023-02-08T06:39:10;-3.50;99.90
20457;DHT22;10387;51.102;6.848;2023-02-08T06:41:36;-3.50;99.90
20457;DHT22;10387;51.102;6.848;2023-02-08T06:44:02;-3.50;99.90
20457;DHT22;10387;51.102;6.848;2023-02-08T06:46:27;-3.50;99.90
20457;DHT22;10387;51.102;6.848;2023-02-08T06:48:53;-3.50;99.90
20457;DHT22;10387;51.102;6.848;2023-02-08T06:51:20;-3.50;99.90
20457;DHT22;10387;51.102;6.848;2023-02-08T06:53:45;-3.50;99.90
20457;DHT22;10387;51.102;6.848;2023-02-08T06:56:11;-3.50;99.90
20457;DHT22;10387;51.102;6.848;2023-02-08T06:58:37;-3.50;99.90
20457;DHT22;10387;51.102;6.848;2023-02-08T07:01:03;-3.50;99.90
20457;DHT22;10387;51.102;6.848;2023-02-08T07:03:28;-3.50;99.90
20457;DHT22;10387;51.102;6.848;2023-02-08T07:05:54;-3.50;99.90
20457;DHT22;10387;51.102;6.848;2023-02-08T07:08:20;-3.40;99.90
20457;DHT22;10387;51.102;6.848;2023-02-08T07:10:45;-3.50;99.90
20457;DHT22;10387;51.102;6.848;2023-02-08T07:13:11;-3.40;99.90
20457;DHT22;10387;51.102;6.848;2023-02-08T07:15:36;-3.40;99.90
20457;DHT22;10387;51.102;6.848;2023-02-08T07:18:02;-3.40;99.90
20457;DHT22;10387;51.102;6.848;2023-02-08T07:20:28;-3.40;99.90
20457;DHT22;10387;51.102;6.848;2023-02-08T07:22:53;-3.30;99.90
20457;DHT22;10387;51.102;6.848;2023-02-08T07:25:20;-3.30;99.90
20457;DHT22;10387;51.102;6.848;2023-02-08T07:27:46;-3.30;99.90
20457;DHT22;10387;51.102;6.848;2023-02-08T07:30:12;-3.20;99.90
20457;DHT22;10387;51.102;6.848;2023-02-08T07:32:38;-3.10;99.90
20457;DHT22;10387;51.102;6.848;2023-02-08T07:35:04;-3.00;99.90
20457;DHT22;10387;51.102;6.848;2023-02-08T07:37:29;-2.90;99.90
20457;DHT22;10387;51.102;6.848;2023-02-08T07:39:57;-2.80;99.90
20457;DHT22;10387;51.102;6.848;2023-02-08T07:42:23;-2.70;99.90
20457;DHT22;10387;51.102;6.848;2023-02-08T07:45:03;-2.60;99.90
20457;DHT22;10387;51.102;6.848;2023-02-08T07:47:29;-2.50;99.90
20457;DHT22;10387;51.102;6.848;2023-02-08T07:49:54;-2.40;99.90
20457;DHT22;10387;51.102;6.848;2023-02-08T07:52:20;-2.30;99.90
20457;DHT22;10387;51.102;6.848;2023-02-08T07:54:45;-2.20;99.90
20457;DHT22;10387;51.102;6.848;2023-02-08T07:57:11;-2.00;99.90
20457;DHT22;10387;51.102;6.848;2023-02-08T07:59:37;-2.00;99.90
20457;DHT22;10387;51.102;6.848;2023-02-08T08:02:02;-1.80;99.90
20457;DHT22;10387;51.102;6.848;2023-02-08T08:04:28;-1.70;99.90
20457;DHT22;10387;51.102;6.848;2023-02-08T08:06:53;-1.60;99.90
20457;DHT22;10387;51.102;6.848;2023-02-08T08:09:19;-1.40;99.90
20457;DHT22;10387;51.102;6.848;2023-02-08T08:11:45;-1.10;99.90
20457;DHT22;10387;51.102;6.848;2023-02-08T08:14:10;-0.80;99.90
20457;DHT22;10387;51.102;6.848;2023-02-08T08:16:36;-0.60;99.90
20457;DHT22;10387;51.102;6.848;2023-02-08T08:19:02;-0.40;99.90
20457;DHT22;10387;51.102;6.848;2023-02-08T08:21:28;-0.30;99.90
20457;DHT22;10387;51.102;6.848;2023-02-08T08:23:53;-0.20;99.90
20457;DHT22;10387;51.102;6.848;2023-02-08T08:26:20;-0.10;99.90
20457;DHT22;10387;51.102;6.848;2023-02-08T08:28:46;-0.10;99.90
20457;DHT22;10387;51.102;6.848;2023-02-08T08:31:18;-0.10;99.90
20457;DHT22;10387;51.102;6.848;2023-02-08T08:33:44;-0.10;99.90
20457;DHT22;10387;51.102;6.848;2023-02-08T08:36:11;0.00;99.90
20457;DHT22;10387;51.102;6.848;2023-02-08T08:38:36;0.00;99.90
20457;DHT22;10387;51.102;6.848;2023-02-08T08:41:11;0.10;99.90
20457;DHT22;10387;51.102;6.848;2023-02-08T08:43:37;0.10;99.90
20457;DHT22;10387;51.102;6.848;2023-02-08T08:46:05;0.20;99.90
20457;DHT22;10387;51.102;6.848;2023-02-08T08:48:30;0.20;99.90
20457;DHT22;10387;51.102;6.848;2023-02-08T08:50:57;0.20;99.90
20457;DHT22;10387;51.102;6.848;2023-02-08T08:53:22;0.30;99.90
20457;DHT22;10387;51.102;6.848;2023-02-08T08:55:48;0.40;99.90
20457;DHT22;10387;51.102;6.848;2023-02-08T08:58:13;0.50;99.90
20457;DHT22;10387;51.102;6.848;2023-02-08T09:00:39;0.60;99.90
20457;DHT22;10387;51.102;6.848;2023-02-08T09:03:05;0.70;99.90
20457;DHT22;10387;51.102;6.848;2023-02-08T09:05:30;0.90;99.90
20457;DHT22;10387;51.102;6.848;2023-02-08T09:07:56;1.00;99.90
20457;DHT22;10387;51.102;6.848;2023-02-08T09:10:22;1.10;99.90
20457;DHT22;10387;51.102;6.848;2023-02-08T09:12:48;1.10;99.90
20457;DHT22;10387;51.102;6.848;2023-02-08T09:15:13;1.20;99.90
20457;DHT22;10387;51.102;6.848;2023-02-08T09:17:39;1.30;99.90
20457;DHT22;10387;51.102;6.848;2023-02-08T09:20:05;1.30;99.90
20457;DHT22;10387;51.102;6.848;2023-02-08T09:22:31;1.40;99.90
20457;DHT22;10387;51.102;6.848;2023-02-08T09:24:56;1.50;99.90
20457;DHT22;10387;51.102;6.848;2023-02-08T09:27:22;1.50;99.90
20457;DHT22;10387;51.102;6.848;2023-02-08T09:29:48;1.60;99.90
20457;DHT22;10387;51.102;6.848;2023-02-08T09:32:13;1.60;99.90
20457;DHT22;10387;51.102;6.848;2023-02-08T09:34:39;1.70;99.90
20457;DHT22;10387;51.102;6.848;2023-02-08T09:37:05;1.80;99.90
20457;DHT22;10387;51.102;6.848;2023-02-08T09:39:31;1.90;99.90
20457;DHT22;10387;51.102;6.848;2023-02-08T09:42:14;2.00;99.90
20457;DHT22;10387;51.102;6.848;2023-02-08T09:47:50;2.20;99.90
20457;DHT22;10387;51.102;6.848;2023-02-08T09:50:33;2.30;99.90
20457;DHT22;10387;51.102;6.848;2023-02-08T09:53:14;2.40;99.90
20457;DHT22;10387;51.102;6.848;2023-02-08T09:55:54;2.50;99.90
20457;DHT22;10387;51.102;6.848;2023-02-08T09:58:27;2.60;99.90
20457;DHT22;10387;51.102;6.848;2023-02-08T10:00:59;2.70;99.90
20457;DHT22;10387;51.102;6.848;2023-02-08T10:03:42;2.80;99.90
20457;DHT22;10387;51.102;6.848;2023-02-08T10:06:15;2.90;99.90
20457;DHT22;10387;51.102;6.848;2023-02-08T10:08:42;3.00;99.90
20457;DHT22;10387;51.102;6.848;2023-02-08T10:11:24;3.00;99.90
20457;DHT22;10387;51.102;6.848;2023-02-08T10:22:35;3.30;99.90
20457;DHT22;10387;51.102;6.848;2023-02-08T10:31:01;3.60;99.90
20457;DHT22;10387;51.102;6.848;2023-02-08T10:33:47;3.70;99.90
20457;DHT22;10387;51.102;6.848;2023-02-08T10:36:46;3.70;99.90
20457;DHT22;10387;51.102;6.848;2023-02-08T10:39:41;3.80;99.90
20457;DHT22;10387;51.102;6.848;2023-02-08T10:42:26;3.80;99.90
20457;DHT22;10387;51.102;6.848;2023-02-08T10:45:23;3.90;99.90
20457;DHT22;10387;51.102;6.848;2023-02-08T10:47:55;3.90;99.90
20457;DHT22;10387;51.102;6.848;2023-02-08T10:50:34;4.00;99.90
20457;DHT22;10387;51.102;6.848;2023-02-08T10:53:00;4.10;99.90
20457;DHT22;10387;51.102;6.848;2023-02-08T10:55:26;4.10;99.90
20457;DHT22;10387;51.102;6.848;2023-02-08T10:57:57;4.20;99.90
20457;DHT22;10387;51.102;6.848;2023-02-08T11:00:26;4.20;99.90
20457;DHT22;10387;51.102;6.848;2023-02-08T11:02:54;4.30;99.90
20457;DHT22;10387;51.102;6.848;2023-02-08T11:08:09;4.50;99.90
20457;DHT22;10387;51.102;6.848;2023-02-08T11:10:37;4.60;99.90
20457;DHT22;10387;51.102;6.848;2023-02-08T11:13:17;4.70;99.90
20457;DHT22;10387;51.102;6.848;2023-02-08T11:15:56;4.70;99.90
20457;DHT22;10387;51.102;6.848;2023-02-08T11:18:37;4.80;99.90
20457;DHT22;10387;51.102;6.848;2023-02-08T11:21:09;4.80;99.90
20457;DHT22;10387;51.102;6.848;2023-02-08T11:23:49;4.90;99.90
20457;DHT22;10387;51.102;6.848;2023-02-08T11:26:34;5.00;99.90
20457;DHT22;10387;51.102;6.848;2023-02-08T11:29:10;5.00;99.90
20457;DHT22;10387;51.102;6.848;2023-02-08T11:31:36;5.00;99.90
20457;DHT22;10387;51.102;6.848;2023-02-08T11:34:07;5.10;99.90
20457;DHT22;10387;51.102;6.848;2023-02-08T11:36:43;5.20;99.90
20457;DHT22;10387;51.102;6.848;2023-02-08T11:39:36;5.20;99.90
20457;DHT22;10387;51.102;6.848;2023-02-08T11:42:03;5.30;99.90
20457;DHT22;10387;51.102;6.848;2023-02-08T11:44:35;5.40;99.90
20457;DHT22;10387;51.102;6.848;2023-02-08T11:47:04;5.50;99.90
20457;DHT22;10387;51.102;6.848;2023-02-08T11:49:37;5.50;99.90
20457;DHT22;10387;51.102;6.848;2023-02-08T11:52:05;5.40;99.90
20457;DHT22;10387;51.102;6.848;2023-02-08T11:54:37;5.50;99.90
20457;DHT22;10387;51.102;6.848;2023-02-08T11:57:19;5.50;99.90
20457;DHT22;10387;51.102;6.848;2023-02-08T12:00:43;5.50;99.90
20457;DHT22;10387;51.102;6.848;2023-02-08T12:05:59;5.70;99.90
20457;DHT22;10387;51.102;6.848;2023-02-08T12:08:38;5.70;99.90
20457;DHT22;10387;51.102;6.848;2023-02-08T12:11:15;5.80;99.90
20457;DHT22;10387;51.102;6.848;2023-02-08T12:24:49;6.00;98.70
20457;DHT22;10387;51.102;6.848;2023-02-08T12:33:02;6.10;97.10
20457;DHT22;10387;51.102;6.848;2023-02-08T12:44:48;6.20;96.20
20457;DHT22;10387;51.102;6.848;2023-02-08T12:50:26;6.30;97.00
20457;DHT22;10387;51.102;6.848;2023-02-08T12:53:34;6.30;95.80
20457;DHT22;10387;51.102;6.848;2023-02-08T12:55:57;6.40;95.80
20457;DHT22;10387;51.102;6.848;2023-02-08T12:58:28;6.40;95.40
20457;DHT22;10387;51.102;6.848;2023-02-08T13:00:59;6.40;95.00
20457;DHT22;10387;51.102;6.848;2023-02-08T13:03:30;6.50;95.50
20457;DHT22;10387;51.102;6.848;2023-02-08T13:05:56;6.50;94.60
20457;DHT22;10387;51.102;6.848;2023-02-08T13:08:31;6.60;94.40
20457;DHT22;10387;51.102;6.848;2023-02-08T13:11:27;6.60;94.40
20457;DHT22;10387;51.102;6.848;2023-02-08T13:14:05;6.70;93.90
20457;DHT22;10387;51.102;6.848;2023-02-08T13:16:36;6.70;93.40
20457;DHT22;10387;51.102;6.848;2023-02-08T13:21:53;6.80;93.60
20457;DHT22;10387;51.102;6.848;2023-02-08T13:26:58;6.80;93.40
20457;DHT22;10387;51.102;6.848;2023-02-08T13:29:24;6.80;92.90
20457;DHT22;10387;51.102;6.848;2023-02-08T13:31:55;6.70;93.90
20457;DHT22;10387;51.102;6.848;2023-02-08T13:37:02;6.80;92.10
20457;DHT22;10387;51.102;6.848;2023-02-08T13:39:41;6.70;92.90
20457;DHT22;10387;51.102;6.848;2023-02-08T13:44:57;6.70;92.70
20457;DHT22;10387;51.102;6.848;2023-02-08T13:47:29;6.70;93.00
20457;DHT22;10387;51.102;6.848;2023-02-08T13:50:01;6.80;92.30
20457;DHT22;10387;51.102;6.848;2023-02-08T13:58:25;6.80;91.80
20457;DHT22;10387;51.102;6.848;2023-02-08T14:03:25;6.70;92.50
20457;DHT22;10387;51.102;6.848;2023-02-08T14:06:22;6.70;92.60
20457;DHT22;10387;51.102;6.848;2023-02-08T14:08:57;6.70;92.90
20457;DHT22;10387;51.102;6.848;2023-02-08T14:11:38;6.80;91.80
20457;DHT22;10387;51.102;6.848;2023-02-08T14:14:21;6.80;91.80
20457;DHT22;10387;51.102;6.848;2023-02-08T14:19:32;6.90;92.10
20457;DHT22;10387;51.102;6.848;2023-02-08T14:25:00;6.90;92.40
20457;DHT22;10387;51.102;6.848;2023-02-08T14:27:48;6.90;91.40
20457;DHT22;10387;51.102;6.848;2023-02-08T14:32:49;6.70;92.10
20457;DHT22;10387;51.102;6.848;2023-02-08T14:35:20;6.70;91.80
20457;DHT22;10387;51.102;6.848;2023-02-08T14:37:48;6.70;91.50
20457;DHT22;10387;51.102;6.848;2023-02-08T14:42:58;6.70;91.80
20457;DHT22;10387;51.102;6.848;2023-02-08T14:45:33;6.70;91.40
20457;DHT22;10387;51.102;6.848;2023-02-08T14:50:51;6.60;92.40
20457;DHT22;10387;51.102;6.848;2023-02-08T14:53:44;6.50;92.90
20457;DHT22;10387;51.102;6.848;2023-02-08T14:59:03;6.50;92.30
20457;DHT22;10387;51.102;6.848;2023-02-08T15:04:10;6.50;92.50
20457;DHT22;10387;51.102;6.848;2023-02-08T15:09:23;6.30;93.30
20457;DHT22;10387;51.102;6.848;2023-02-08T15:14:25;6.20;93.30
20457;DHT22;10387;51.102;6.848;2023-02-08T15:16:51;6.20;93.40
20457;DHT22;10387;51.102;6.848;2023-02-08T15:19:30;6.20;93.60
20457;DHT22;10387;51.102;6.848;2023-02-08T15:24:57;6.00;94.10
20457;DHT22;10387;51.102;6.848;2023-02-08T15:27:28;6.00;93.40
20457;DHT22;10387;51.102;6.848;2023-02-08T15:29:53;5.90;94.00
20457;DHT22;10387;51.102;6.848;2023-02-08T15:32:22;5.90;94.30
20457;DHT22;10387;51.102;6.848;2023-02-08T15:35:00;5.80;94.10
20457;DHT22;10387;51.102;6.848;2023-02-08T15:37:30;5.80;94.30
20457;DHT22;10387;51.102;6.848;2023-02-08T15:39:58;5.70;94.60
20457;DHT22;10387;51.102;6.848;2023-02-08T15:42:26;5.60;94.90
20457;DHT22;10387;51.102;6.848;2023-02-08T15:44:54;5.50;94.80
20457;DHT22;10387;51.102;6.848;2023-02-08T15:47:32;5.40;94.80
20457;DHT22;10387;51.102;6.848;2023-02-08T15:49:59;5.40;95.30
20457;DHT22;10387;51.102;6.848;2023-02-08T15:52:29;5.30;95.50
20457;DHT22;10387;51.102;6.848;2023-02-08T15:54:56;5.20;96.10
20457;DHT22;10387;51.102;6.848;2023-02-08T16:00:23;5.10;96.20
20457;DHT22;10387;51.102;6.848;2023-02-08T16:02:51;5.00;96.20
20457;DHT22;10387;51.102;6.848;2023-02-08T16:05:23;4.90;96.50
20457;DHT22;10387;51.102;6.848;2023-02-08T16:07:50;4.90;96.80
20457;DHT22;10387;51.102;6.848;2023-02-08T16:10:40;4.80;96.80
20457;DHT22;10387;51.102;6.848;2023-02-08T16:13:32;4.70;97.20
20457;DHT22;10387;51.102;6.848;2023-02-08T16:18:48;4.40;97.40
20457;DHT22;10387;51.102;6.848;2023-02-08T16:21:39;4.40;98.00
20457;DHT22;10387;51.102;6.848;2023-02-08T16:32:01;4.00;97.70
20457;DHT22;10387;51.102;6.848;2023-02-08T16:34:30;4.00;97.80
20457;DHT22;10387;51.102;6.848;2023-02-08T16:36:57;3.90;97.50
20457;DHT22;10387;51.102;6.848;2023-02-08T16:40:01;3.80;97.90
20457;DHT22;10387;51.102;6.848;2023-02-08T16:47:54;3.60;97.90
20457;DHT22;10387;51.102;6.848;2023-02-08T16:50:25;3.50;98.30
20457;DHT22;10387;51.102;6.848;2023-02-08T16:52:59;3.40;98.40
20457;DHT22;10387;51.102;6.848;2023-02-08T16:55:28;3.30;98.50
20457;DHT22;10387;51.102;6.848;2023-02-08T16:57:56;3.30;98.90
20457;DHT22;10387;51.102;6.848;2023-02-08T17:00:31;3.20;98.90
20457;DHT22;10387;51.102;6.848;2023-02-08T17:02:58;3.30;98.80
20457;DHT22;10387;51.102;6.848;2023-02-08T17:05:27;3.20;98.80
20457;DHT22;10387;51.102;6.848;2023-02-08T17:07:53;3.20;98.50
20457;DHT22;10387;51.102;6.848;2023-02-08T17:10:37;3.10;98.60
20457;DHT22;10387;51.102;6.848;2023-02-08T17:13:03;3.00;98.80
20457;DHT22;10387;51.102;6.848;2023-02-08T17:15:29;2.90;98.60
20457;DHT22;10387;51.102;6.848;2023-02-08T17:17:55;2.90;98.90
20457;DHT22;10387;51.102;6.848;2023-02-08T17:20:27;2.80;99.30
20457;DHT22;10387;51.102;6.848;2023-02-08T17:22:57;2.80;99.20
20457;DHT22;10387;51.102;6.848;2023-02-08T17:25:23;2.70;99.40
20457;DHT22;10387;51.102;6.848;2023-02-08T17:27:55;2.60;99.80
20457;DHT22;10387;51.102;6.848;2023-02-08T17:30:31;2.60;99.80
20457;DHT22;10387;51.102;6.848;2023-02-08T17:32:57;2.50;99.90
20457;DHT22;10387;51.102;6.848;2023-02-08T17:35:24;2.60;99.70
20457;DHT22;10387;51.102;6.848;2023-02-08T17:37:51;2.60;99.60
20457;DHT22;10387;51.102;6.848;2023-02-08T17:40:26;2.60;99.50
20457;DHT22;10387;51.102;6.848;2023-02-08T17:42:54;2.60;99.60
20457;DHT22;10387;51.102;6.848;2023-02-08T17:45:20;2.60;99.30
20457;DHT22;10387;51.102;6.848;2023-02-08T17:47:46;2.60;99.70
20457;DHT22;10387;51.102;6.848;2023-02-08T17:50:15;2.60;99.40
20457;DHT22;10387;51.102;6.848;2023-02-08T17:52:41;2.50;99.30
20457;DHT22;10387;51.102;6.848;2023-02-08T17:55:09;2.50;99.60
20457;DHT22;10387;51.102;6.848;2023-02-08T17:57:37;2.40;99.70
20457;DHT22;10387;51.102;6.848;2023-02-08T18:00:17;2.30;99.70
20457;DHT22;10387;51.102;6.848;2023-02-08T18:02:48;2.30;99.50
20457;DHT22;10387;51.102;6.848;2023-02-08T18:05:20;2.20;99.90
20457;DHT22;10387;51.102;6.848;2023-02-08T18:07:45;2.10;99.90
20457;DHT22;10387;51.102;6.848;2023-02-08T18:10:12;2.10;99.90
20457;DHT22;10387;51.102;6.848;2023-02-08T18:12:39;2.00;99.90
20457;DHT22;10387;51.102;6.848;2023-02-08T18:15:08;2.00;99.90
20457;DHT22;10387;51.102;6.848;2023-02-08T18:17:34;1.90;99.90
20457;DHT22;10387;51.102;6.848;2023-02-08T18:20:00;1.80;99.90